Time;durP1;ratioP1;P1;durP2;ratioP2;P2;SDS_P1;SDS_P2;PMS_P1;PMS_P2;Temp;Humidity;BMP_temperature;BMP_pressure;BME280_temperature;BME280_humidity;BME280_pressure;Samples;Min_cycle;Max_cycle;Signal;HPM_P1;HPM_P2
2023/12/12 00:00:57;;;;;;;0.40;0.40;;;;;;;7.58;100.00;98833.00;5016621;28;20037;-80
2023/12/12 00:03:23;;;;;;;0.40;0.40;;;;;;;7.58;100.00;98841.84;5000611;28;20026;-79
2023/12/12 00:05:51;;;;;;;0.40;0.40;;;;;;;7.60;100.00;98833.63;5000155;28;20028;-80
2023/12/12 00:08:19;;;;;;;0.40;0.40;;;;;;;7.59;100.00;98821.28;5015962;28;20044;-80
2023/12/12 00:10:45;;;;;;;0.40;0.40;;;;;;;7.62;100.00;98828.88;4999833;28;20041;-79
2023/12/12 00:13:16;;;;;;;0.40;0.40;;;;;;;7.59;100.00;98821.28;5000088;28;20083;-79
2023/12/12 00:15:42;;;;;;;0.40;0.40;;;;;;;7.62;100.00;98823.53;5000159;28;20025;-78
2023/12/12 00:18:08;;;;;;;0.40;0.40;;;;;;;7.59;100.00;98813.25;4999890;28;20521;-79
2023/12/12 00:20:36;;;;;;;0.40;0.40;;;;;;;7.64;100.00;98819.63;4999884;28;20037;-79
2023/12/12 00:23:08;;;;;;;0.40;0.40;;;;;;;7.67;100.00;98815.72;5032663;28;20040;-79
2023/12/12 00:25:36;;;;;;;0.40;0.40;;;;;;;7.67;100.00;98821.06;5016141;28;20060;-79
2023/12/12 00:28:05;;;;;;;0.40;0.40;;;;;;;7.60;100.00;98804.22;4999981;28;20077;-79
2023/12/12 00:30:33;;;;;;;0.40;0.40;;;;;;;7.67;100.00;98813.03;5015859;28;20033;-79
2023/12/12 00:32:59;;;;;;;0.40;0.40;;;;;;;7.65;100.00;98810.59;5015892;28;20476;-79
2023/12/12 00:35:25;;;;;;;0.40;0.40;;;;;;;7.63;100.00;98809.97;4999776;28;20087;-79
2023/12/12 00:37:53;;;;;;;0.40;0.40;;;;;;;7.60;100.00;98802.34;4999616;28;20072;-79
2023/12/12 00:40:19;;;;;;;0.50;0.50;;;;;;;7.59;100.00;98794.53;4999304;28;20033;-80
2023/12/12 00:42:47;;;;;;;0.40;0.40;;;;;;;7.59;100.00;98795.34;5031933;28;20041;-80
2023/12/12 00:45:12;;;;;;;0.40;0.40;;;;;;;7.46;100.00;98788.16;4999965;28;20464;-80
2023/12/12 00:47:38;;;;;;;0.40;0.40;;;;;;;7.41;100.00;98787.94;4999098;28;20033;-80
2023/12/12 00:50:04;;;;;;;0.40;0.40;;;;;;;7.42;100.00;98786.09;5031597;28;20021;-79
2023/12/12 00:52:34;;;;;;;0.40;0.40;;;;;;;7.44;100.00;98776.84;4999580;28;20464;-79
2023/12/12 00:55:02;;;;;;;0.40;0.40;;;;;;;7.42;100.00;98778.06;5015332;28;20029;-80
2023/12/12 00:57:28;;;;;;;0.40;0.40;;;;;;;7.38;100.00;98779.47;4999633;28;20057;-80
2023/12/12 00:59:53;;;;;;;0.40;0.40;;;;;;;7.27;100.00;98780.91;5015445;28;20163;-80
2023/12/12 01:02:26;;;;;;;0.40;0.40;;;;;;;7.16;100.00;98778.84;5015263;28;20052;-80
2023/12/12 01:04:56;;;;;;;0.40;0.40;;;;;;;7.10;100.00;98779.66;5016277;28;20060;-80
2023/12/12 01:07:22;;;;;;;0.40;0.40;;;;;;;7.04;100.00;98771.41;4999260;28;20091;-80
2023/12/12 01:09:47;;;;;;;0.50;0.50;;;;;;;6.96;100.00;98765.41;4999142;28;20472;-80
2023/12/12 01:12:13;;;;;;;0.45;0.45;;;;;;;6.88;100.00;98760.25;4999213;28;20052;-79
2023/12/12 01:14:39;;;;;;;0.40;0.40;;;;;;;6.85;100.00;98760.66;5031670;28;20075;-79
2023/12/12 01:17:07;;;;;;;0.40;0.40;;;;;;;6.77;100.00;98764.31;5014930;28;20141;-80
2023/12/12 01:19:33;;;;;;;0.40;0.40;;;;;;;6.77;100.00;98757.16;5015687;28;20122;-79
2023/12/12 01:21:59;;;;;;;0.40;0.40;;;;;;;6.82;100.00;98756.53;4999286;28;20136;-79
2023/12/12 01:24:24;;;;;;;0.50;0.50;;;;;;;6.82;100.00;98753.88;5015347;28;20077;-79
2023/12/12 01:26:50;;;;;;;0.40;0.40;;;;;;;6.83;100.00;98748.34;4999031;28;20468;-80
2023/12/12 01:29:17;;;;;;;0.40;0.40;;;;;;;6.81;100.00;98747.72;5015471;28;20037;-80
2023/12/12 01:31:43;;;;;;;0.50;0.50;;;;;;;6.79;100.00;98746.25;4999351;28;20432;-79
2023/12/12 01:34:12;;;;;;;0.50;0.50;;;;;;;6.74;100.00;98744.19;5015164;28;20109;-80
2023/12/12 01:36:37;;;;;;;0.40;0.40;;;;;;;6.66;100.00;98740.88;5014981;28;20156;-80
2023/12/12 01:39:04;;;;;;;0.40;0.40;;;;;;;6.66;100.00;98752.38;4999587;28;20124;-79
2023/12/12 01:41:30;;;;;;;0.47;0.47;;;;;;;6.58;100.00;98739.19;4998920;28;20044;-79
2023/12/12 01:43:55;;;;;;;0.40;0.40;;;;;;;6.46;100.00;98741.63;5031430;28;20041;-80
2023/12/12 01:46:21;;;;;;;0.40;0.40;;;;;;;6.37;100.00;98740.13;4999018;28;20045;-80
2023/12/12 01:48:49;;;;;;;0.40;0.40;;;;;;;6.31;100.00;98746.28;4998462;28;20033;-80
2023/12/12 01:51:18;;;;;;;0.40;0.40;;;;;;;6.29;100.00;98745.63;4999064;28;20037;-80
2023/12/12 01:53:47;;;;;;;0.40;0.40;;;;;;;6.36;100.00;98739.31;5017694;28;20045;-80
2023/12/12 01:56:13;;;;;;;0.40;0.40;;;;;;;6.38;100.00;98741.78;5002593;28;20063;-79
2023/12/12 01:58:43;;;;;;;0.43;0.43;;;;;;;6.33;100.00;98737.03;5034727;28;20036;-79
2023/12/12 02:01:09;;;;;;;0.40;0.40;;;;;;;6.27;100.00;98742.34;5034833;28;20040;-79
2023/12/12 02:03:35;;;;;;;0.40;0.40;;;;;;;6.23;100.00;98733.09;5034695;28;20029;-79
2023/12/12 02:06:01;;;;;;;0.40;0.40;;;;;;;6.24;100.00;98730.22;5018553;28;20476;-80
2023/12/12 02:08:28;;;;;;;0.45;0.45;;;;;;;6.15;100.00;98729.56;5002167;28;20029;-80
2023/12/12 02:10:56;;;;;;;0.40;0.40;;;;;;;5.98;100.00;98727.41;5034207;28;20056;-80
2023/12/12 02:13:22;;;;;;;0.45;0.45;;;;;;;5.93;100.00;98738.63;5018359;28;20057;-80
2023/12/12 02:15:50;;;;;;;0.40;0.40;;;;;;;5.90;100.00;98731.84;5018270;28;20499;-80
2023/12/12 02:18:16;;;;;;;0.50;0.50;;;;;;;5.84;100.00;98731.78;5034213;28;20037;-79
2023/12/12 02:20:42;;;;;;;0.30;0.30;;;;;;;5.76;100.00;98727.44;5001859;28;20087;-79
2023/12/12 02:23:09;;;;;;;0.40;0.40;;;;;;;5.63;100.00;98724.66;5017895;28;20103;-80
2023/12/12 02:25:40;;;;;;;0.40;0.40;;;;;;;5.55;100.00;98728.31;5018767;28;20132;-80
2023/12/12 02:28:19;;;;;;;0.40;0.40;;;;;;;5.64;100.00;98726.34;5001873;28;20052;-80
2023/12/12 02:30:47;;;;;;;0.50;0.50;;;;;;;5.64;100.00;98729.81;4986292;28;20091;-80
2023/12/12 02:33:13;;;;;;;0.40;0.40;;;;;;;5.61;100.00;98722.22;5002220;28;20053;-80
2023/12/12 02:35:39;;;;;;;0.40;0.40;;;;;;;5.50;100.00;98720.06;5017783;28;20116;-80
2023/12/12 02:38:05;;;;;;;0.40;0.40;;;;;;;5.49;100.00;98724.56;5001726;28;20029;-80
2023/12/12 02:40:36;;;;;;;0.50;0.50;;;;;;;5.52;100.00;98728.69;5034100;28;20041;-80
2023/12/12 02:43:01;;;;;;;0.40;0.40;;;;;;;5.42;100.00;98725.53;5017699;28;20049;-80
2023/12/12 02:45:27;;;;;;;0.40;0.40;;;;;;;5.23;100.00;98722.50;5001563;28;20038;-80
2023/12/12 02:47:53;;;;;;;0.40;0.40;;;;;;;5.02;100.00;98720.66;5033770;28;20025;-80
2023/12/12 02:50:19;;;;;;;0.40;0.40;;;;;;;4.82;100.00;98712.50;5017541;28;20033;-80
2023/12/12 02:52:47;;;;;;;0.50;0.50;;;;;;;4.82;100.00;98717.81;5033611;28;20029;-79
2023/12/12 02:55:13;;;;;;;0.40;0.40;;;;;;;4.76;100.00;98707.94;5001289;28;20388;-80
2023/12/12 02:57:46;;;;;;;0.40;0.40;;;;;;;4.72;100.00;98711.97;5001176;28;20026;-80
2023/12/12 03:00:12;;;;;;;0.50;0.50;;;;;;;4.73;100.00;98718.09;5001528;28;20041;-80
2023/12/12 03:02:38;;;;;;;0.40;0.40;;;;;;;4.63;100.00;98713.06;5000927;28;20033;-80
2023/12/12 03:08:28;;;;;;;0.50;0.50;;;;;;;4.29;100.00;98709.22;5034121;28;20064;-80
2023/12/12 03:10:57;;;;;;;0.50;0.50;;;;;;;4.13;100.00;98709.44;5033512;28;20060;-80
2023/12/12 03:13:41;;;;;;;0.40;0.40;;;;;;;3.99;100.00;98712.91;5016724;28;20388;-80
2023/12/12 03:16:07;;;;;;;0.40;0.40;;;;;;;3.94;100.00;98713.44;5000555;28;20426;-80
2023/12/12 03:19:07;;;;;;;;;;;;;;;;;;;;;
2023/12/12 03:22:05;;;;;;;0.40;0.40;;;;;;;3.82;100.00;98688.34;5034086;28;20083;-79
2023/12/12 03:25:12;;;;;;;0.40;0.40;;;;;;;3.82;100.00;98675.88;5021804;28;20052;-80
2023/12/12 03:28:49;;;;;;;0.50;0.50;;;;;;;3.92;100.00;98687.06;5029493;28;20045;-80
2023/12/12 03:31:43;;;;;;;;;;;;;;;3.83;100.00;98684.66;5019657;28;20052;-80
2023/12/12 03:35:10;;;;;;;;;;;;;;;;;;;;;
2023/12/12 03:37:48;;;;;;;0.50;0.50;;;;;;;3.82;100.00;98665.22;5032663;28;20423;-80
2023/12/12 03:40:50;;;;;;;0.43;0.43;;;;;;;4.02;100.00;98672.63;5000766;28;20087;-80
2023/12/12 03:43:27;;;;;;;0.50;0.50;;;;;;;4.01;100.00;98661.19;5032524;28;20057;-80
2023/12/12 03:47:04;;;;;;;0.40;0.40;;;;;;;3.99;100.00;98662.38;5000886;28;20025;-80
2023/12/12 03:49:32;;;;;;;0.50;0.50;;;;;;;3.99;100.00;98670.34;4993082;28;20038;-81
2023/12/12 03:51:58;;;;;;;0.40;0.40;;;;;;;4.04;100.00;98673.28;4962989;28;20125;-80
2023/12/12 03:54:24;;;;;;;0.43;0.43;;;;;;;4.17;100.00;98676.09;4998502;28;20041;-80
2023/12/12 03:56:52;;;;;;;0.50;0.50;;;;;;;4.16;100.00;98669.16;4999481;28;20464;-80
2023/12/12 03:59:17;;;;;;;0.40;0.40;;;;;;;4.10;100.00;98672.53;4999157;28;20041;-80
2023/12/12 04:01:49;;;;;;;0.43;0.43;;;;;;;3.96;100.00;98666.22;4999750;28;20473;-80
2023/12/12 04:04:17;;;;;;;0.50;0.50;;;;;;;3.79;100.00;98657.63;5016059;28;20025;-80
2023/12/12 04:06:49;;;;;;;0.40;0.40;;;;;;;3.61;100.00;98659.81;4984456;28;20033;-80
2023/12/12 04:09:18;;;;;;;0.40;0.40;;;;;;;3.37;100.00;98664.38;5032816;28;20026;-80
2023/12/12 04:11:46;;;;;;;0.40;0.40;;;;;;;3.23;100.00;98667.84;5000066;28;20559;-80
2023/12/12 04:14:12;;;;;;;0.40;0.40;;;;;;;3.14;100.00;98667.06;5032591;28;20037;-80
2023/12/12 04:16:39;;;;;;;0.43;0.43;;;;;;;3.13;100.00;98661.97;4999514;28;20087;-80
2023/12/12 04:19:04;;;;;;;0.50;0.50;;;;;;;3.06;100.00;98669.78;4983460;28;20040;-80
2023/12/12 04:21:30;;;;;;;0.50;0.50;;;;;;;3.00;100.00;98652.75;4999889;28;20037;-79
2023/12/12 04:23:58;;;;;;;0.40;0.40;;;;;;;3.00;100.00;98651.94;5000030;28;20064;-79
2023/12/12 04:26:29;;;;;;;0.40;0.40;;;;;;;2.98;100.00;98654.75;4999686;28;20044;-80
2023/12/12 04:28:57;;;;;;;0.40;0.40;;;;;;;2.97;100.00;98658.44;4983731;28;20041;-79
2023/12/12 04:31:25;;;;;;;0.50;0.50;;;;;;;2.94;100.00;98664.09;5031891;28;20476;-80
2023/12/12 04:33:51;;;;;;;0.40;0.40;;;;;;;2.86;100.00;98658.84;4999471;28;20039;-80
2023/12/12 04:36:17;;;;;;;0.40;0.40;;;;;;;2.79;100.00;98660.56;5015098;28;20041;-80
2023/12/12 04:38:42;;;;;;;0.40;0.40;;;;;;;2.71;100.00;98656.13;4999493;28;20508;-80
2023/12/12 04:41:11;;;;;;;0.50;0.50;;;;;;;2.67;100.00;98654.81;4999141;28;20045;-80
2023/12/12 04:43:56;;;;;;;;;;;;;;;;;;;;;
2023/12/12 04:46:25;;;;;;;0.50;0.50;;;;;;;2.83;100.00;98651.22;5032117;28;20033;-79
2023/12/12 04:51:59;;;;;;;0.50;0.50;;;;;;;3.20;100.00;98649.59;5018244;28;20033;-80
2023/12/12 04:54:26;;;;;;;0.40;0.40;;;;;;;3.32;100.00;98650.81;5033205;28;20080;-79
2023/12/12 04:57:19;;;;;;;0.40;0.40;;;;;;;3.49;100.00;98652.31;5005390;28;20128;-79
2023/12/12 05:00:29;;;;;;;0.40;0.40;;;;;;;3.65;100.00;98655.78;5006256;28;20136;-80
2023/12/12 05:03:49;;;;;;;;;;;;;;;;;;;;;
2023/12/12 05:07:16;;;;;;;0.50;0.50;;;;;;;3.73;100.00;98655.69;4974686;28;20034;-80
2023/12/12 05:09:59;;;;;;;0.40;0.40;;;;;;;3.61;100.00;98639.38;4956759;28;20153;-79
2023/12/12 05:13:18;;;;;;;0.50;0.50;;;;;;;3.66;100.00;98668.06;4958234;28;20039;-79
2023/12/12 05:15:45;;;;;;;0.40;0.40;;;;;;;3.61;100.00;98652.66;4959276;28;20109;-80
2023/12/12 05:18:11;;;;;;;0.50;0.50;;;;;;;3.62;100.00;98656.16;4975399;28;20034;-80
2023/12/12 05:20:41;;;;;;;0.50;0.50;;;;;;;3.59;100.00;98657.34;4991907;28;20175;-80
2023/12/12 05:23:11;;;;;;;0.40;0.40;;;;;;;3.57;100.00;98658.53;5000103;28;20111;-80
2023/12/12 05:25:36;;;;;;;0.40;0.40;;;;;;;3.49;100.00;98657.63;5031663;28;20033;-80
2023/12/12 05:28:04;;;;;;;0.40;0.40;;;;;;;3.42;100.00;98654.03;5033039;28;20103;-80
2023/12/12 05:30:31;;;;;;;0.50;0.50;;;;;;;3.43;100.00;98647.69;5002839;28;20029;-79
2023/12/12 05:32:57;;;;;;;0.40;0.40;;;;;;;3.50;100.00;98648.63;5019231;28;20480;-80
2023/12/12 05:35:26;;;;;;;0.40;0.40;;;;;;;3.51;100.00;98649.44;5018903;28;20044;-80
2023/12/12 05:37:52;;;;;;;0.40;0.40;;;;;;;3.49;100.00;98647.00;5003072;28;20072;-80
2023/12/12 05:40:29;;;;;;;0.50;0.50;;;;;;;3.50;100.00;98645.97;5035534;28;20033;-79
2023/12/12 05:43:21;;;;;;;0.40;0.40;;;;;;;3.61;100.00;98644.69;5002791;28;20200;-80
2023/12/12 05:46:33;;;;;;;0.40;0.40;;;;;;;3.74;100.00;98638.75;5018482;28;20116;-80
2023/12/12 05:49:36;;;;;;;0.40;0.40;;;;;;;3.76;100.00;98626.09;5003513;28;20037;-80
2023/12/12 05:52:52;;;;;;;0.40;0.40;;;;;;;3.95;100.00;98640.66;5019083;28;20037;-80
2023/12/12 05:56:22;;;;;;;0.50;0.50;;;;;;;3.99;100.00;98630.47;5010224;28;20373;-80
2023/12/12 05:59:08;;;;;;;0.50;0.50;;;;;;;4.06;100.00;98637.53;5005324;28;20043;-79
2023/12/12 06:02:11;;;;;;;0.50;0.50;;;;;;;4.23;100.00;98656.75;5004951;28;20091;-79
2023/12/12 06:05:28;;;;;;;0.40;0.40;;;;;;;4.17;100.00;98638.88;5017976;28;20037;-80
2023/12/12 06:07:57;;;;;;;0.40;0.40;;;;;;;4.24;100.00;98647.75;5019105;28;20041;-80
2023/12/12 06:10:22;;;;;;;0.40;0.40;;;;;;;4.21;100.00;98650.81;5001824;28;20041;-80
2023/12/12 06:12:48;;;;;;;0.47;0.47;;;;;;;4.19;100.00;98645.66;5002231;28;20447;-79
2023/12/12 06:15:14;;;;;;;0.50;0.50;;;;;;;4.25;100.00;98645.91;5035015;28;20078;-80
2023/12/12 06:17:40;;;;;;;0.40;0.40;;;;;;;4.30;100.00;98639.03;5018021;28;20374;-80
2023/12/12 06:20:07;;;;;;;0.52;0.52;;;;;;;4.39;100.00;98645.91;5001694;28;20037;-80
2023/12/12 06:22:39;;;;;;;0.40;0.40;;;;;;;4.47;100.00;98636.13;5018836;28;20129;-80
2023/12/12 06:25:06;;;;;;;0.50;0.50;;;;;;;4.55;100.00;98641.34;5018163;28;20037;-79
2023/12/12 06:27:32;;;;;;;0.40;0.40;;;;;;;4.60;100.00;98646.91;5018373;28;20087;-80
2023/12/12 06:29:58;;;;;;;0.40;0.40;;;;;;;4.67;100.00;98650.47;5018307;28;20041;-80
2023/12/12 06:32:26;;;;;;;0.40;0.40;;;;;;;4.73;100.00;98652.38;5017806;28;20112;-81
2023/12/12 06:34:54;;;;;;;0.50;0.50;;;;;;;4.74;100.00;98651.38;5001944;28;20543;-80
2023/12/12 06:37:20;;;;;;;0.40;0.40;;;;;;;4.74;100.00;98646.06;5001799;28;20084;-79
2023/12/12 06:39:46;;;;;;;0.50;0.50;;;;;;;4.80;100.00;98655.94;5001393;28;20033;-79
2023/12/12 06:42:12;;;;;;;0.50;0.50;;;;;;;4.85;100.00;98655.38;5017221;28;20406;-79
2023/12/12 06:44:37;;;;;;;0.45;0.45;;;;;;;4.93;100.00;98660.56;5001444;28;20029;-80
2023/12/12 06:47:03;;;;;;;0.50;0.50;;;;;;;4.99;100.00;98650.97;5017559;28;20099;-80
2023/12/12 06:49:35;;;;;;;0.40;0.40;;;;;;;5.01;100.00;98651.63;5001338;28;20049;-80
2023/12/12 06:52:01;;;;;;;0.50;0.50;;;;;;;5.02;100.00;98648.75;5018195;28;20384;-79
2023/12/12 06:54:27;;;;;;;0.40;0.40;;;;;;;5.04;100.00;98661.88;5033896;28;20059;-79
2023/12/12 06:57:28;;;;;;;0.40;0.40;;;;;;;4.96;100.00;98635.38;5001297;28;20499;-79
2023/12/12 06:59:54;;;;;;;0.40;0.40;;;;;;;5.11;100.00;98660.09;5021953;28;20563;-79
2023/12/12 07:02:22;;;;;;;0.40;0.40;;;;;;;5.15;100.00;98661.34;5001490;28;20033;-79
2023/12/12 07:04:48;;;;;;;0.40;0.40;;;;;;;5.20;100.00;98660.78;5017559;28;20086;-80
2023/12/12 07:07:14;;;;;;;0.40;0.40;;;;;;;5.20;100.00;98664.28;5017613;28;20037;-79
2023/12/12 07:09:40;;;;;;;0.50;0.50;;;;;;;5.18;100.00;98655.63;5001245;28;20033;-79
2023/12/12 07:12:06;;;;;;;0.40;0.40;;;;;;;5.11;100.00;98652.13;5001239;28;20218;-79
2023/12/12 07:14:31;;;;;;;0.40;0.40;;;;;;;5.01;100.00;98647.09;5032932;28;20029;-79
2023/12/12 07:16:57;;;;;;;0.40;0.40;;;;;;;4.91;100.00;98659.91;5000534;28;20460;-81
2023/12/12 07:19:23;;;;;;;0.40;0.40;;;;;;;4.81;100.00;98660.22;5033082;28;20067;-79
2023/12/12 07:21:49;;;;;;;0.45;0.45;;;;;;;4.71;100.00;98654.41;5017292;28;20033;-79
2023/12/12 07:24:15;;;;;;;0.40;0.40;;;;;;;4.54;100.00;98650.34;5000909;28;20091;-79
2023/12/12 07:26:47;;;;;;;0.40;0.40;;;;;;;4.31;100.00;98658.47;5000794;28;20025;-79
2023/12/12 07:29:17;;;;;;;0.50;0.50;;;;;;;4.28;100.00;98667.66;5017108;28;20091;-79
2023/12/12 07:31:45;;;;;;;0.40;0.40;;;;;;;4.21;100.00;98665.91;5017607;28;20506;-79
2023/12/12 07:34:11;;;;;;;0.40;0.40;;;;;;;4.13;100.00;98669.53;5000799;28;20040;-79
2023/12/12 07:36:39;;;;;;;0.40;0.40;;;;;;;4.06;100.00;98669.44;5016821;28;20037;-79
2023/12/12 07:39:05;;;;;;;0.40;0.40;;;;;;;4.04;100.00;98676.75;5016361;28;20476;-80
2023/12/12 07:41:37;;;;;;;0.40;0.40;;;;;;;4.04;100.00;98674.09;5016857;28;20029;-79
2023/12/12 07:44:03;;;;;;;0.40;0.40;;;;;;;3.99;100.00;98676.50;5000342;28;20036;-79
2023/12/12 07:46:29;;;;;;;0.40;0.40;;;;;;;3.93;100.00;98680.72;5014919;28;20430;-79
2023/12/12 07:48:57;;;;;;;0.40;0.40;;;;;;;3.85;100.00;98667.53;5015635;28;20029;-79
2023/12/12 07:51:42;;;;;;;0.40;0.40;;;;;;;3.70;100.00;98672.00;5018482;28;20029;-79
2023/12/12 07:54:08;;;;;;;0.40;0.40;;;;;;;3.57;100.00;98661.19;5000407;28;20064;-80
2023/12/12 07:56:35;;;;;;;0.40;0.40;;;;;;;3.67;100.00;98675.84;5016512;28;20033;-79
2023/12/12 07:59:00;;;;;;;0.40;0.40;;;;;;;3.63;100.00;98676.41;5000389;28;20045;-79
2023/12/12 08:01:27;;;;;;;0.40;0.40;;;;;;;3.58;100.00;98681.44;5000138;28;20030;-79
2023/12/12 08:03:52;;;;;;;0.50;0.50;;;;;;;3.67;100.00;98681.16;5000213;28;20128;-80
2023/12/12 08:06:19;;;;;;;0.40;0.40;;;;;;;3.90;100.00;98681.09;5016620;28;20172;-79
2023/12/12 08:08:47;;;;;;;0.40;0.40;;;;;;;4.02;100.00;98680.63;4983531;28;20044;-79
2023/12/12 08:11:13;;;;;;;0.50;0.50;;;;;;;4.17;100.00;98681.44;5016268;28;20029;-79
2023/12/12 08:13:39;;;;;;;0.40;0.40;;;;;;;4.22;100.00;98683.53;5000221;28;20041;-80
2023/12/12 08:16:08;;;;;;;0.40;0.40;;;;;;;4.25;100.00;98688.50;5000078;28;20499;-79
2023/12/12 08:18:33;;;;;;;0.47;0.47;;;;;;;4.16;100.00;98696.56;5016229;28;20041;-79
2023/12/12 08:20:59;;;;;;;0.40;0.40;;;;;;;4.01;100.00;98698.41;4999564;28;20044;-79
2023/12/12 08:23:28;;;;;;;0.40;0.40;;;;;;;3.88;100.00;98699.06;5031628;28;20116;-79
2023/12/12 08:25:58;;;;;;;0.50;0.50;;;;;;;3.94;100.00;98693.03;4999078;28;20037;-79
2023/12/12 08:28:27;;;;;;;0.40;0.40;;;;;;;4.08;100.00;98699.34;4999590;28;20528;-79
2023/12/12 08:30:53;;;;;;;0.40;0.40;;;;;;;4.19;100.00;98690.88;4999719;28;20031;-79
2023/12/12 08:33:22;;;;;;;0.40;0.40;;;;;;;4.30;100.00;98688.75;4999479;28;20037;-80
2023/12/12 08:35:47;;;;;;;0.40;0.40;;;;;;;4.38;100.00;98692.13;5032374;28;20034;-79
2023/12/12 08:38:13;;;;;;;0.40;0.40;;;;;;;4.46;100.00;98693.03;5015981;28;20040;-79
2023/12/12 08:40:39;;;;;;;0.50;0.50;;;;;;;4.52;100.00;98694.94;4999585;28;20042;-79
2023/12/12 08:43:07;;;;;;;0.40;0.40;;;;;;;4.56;100.00;98689.06;5016095;28;20030;-79
2023/12/12 08:45:36;;;;;;;0.40;0.40;;;;;;;4.57;100.00;98692.53;4999903;28;20040;-79
2023/12/12 08:48:02;;;;;;;0.40;0.40;;;;;;;4.53;100.00;98696.59;4999654;28;20026;-79
2023/12/12 08:50:35;;;;;;;0.50;0.50;;;;;;;4.48;100.00;98693.69;4999358;28;20036;-80
2023/12/12 08:53:03;;;;;;;0.40;0.40;;;;;;;4.43;100.00;98696.06;5016273;28;20033;-79
2023/12/12 08:55:29;;;;;;;0.40;0.40;;;;;;;4.51;100.00;98702.09;5015401;28;20400;-79
2023/12/12 08:57:55;;;;;;;0.50;0.50;;;;;;;4.69;100.00;98701.69;4999473;28;20061;-79
2023/12/12 09:00:24;;;;;;;0.40;0.40;;;;;;;4.85;100.00;98703.28;5000220;28;20130;-79
2023/12/12 09:02:49;;;;;;;0.40;0.40;;;;;;;4.91;100.00;98709.69;5001976;28;20068;-79
2023/12/12 09:05:15;;;;;;;0.50;0.50;;;;;;;4.99;100.00;98706.91;5019874;28;20451;-79
2023/12/12 09:07:43;;;;;;;0.50;0.50;;;;;;;5.06;100.00;98703.28;5035449;28;20026;-80
2023/12/12 09:10:09;;;;;;;0.40;0.40;;;;;;;5.14;100.00;98714.84;5002989;28;20080;-80
2023/12/12 09:12:37;;;;;;;0.50;0.50;;;;;;;5.22;100.00;98715.53;5019337;28;20029;-81
2023/12/12 09:15:05;;;;;;;0.43;0.43;;;;;;;5.27;100.00;98715.78;5003729;28;20357;-81
2023/12/12 09:17:40;;;;;;;0.40;0.40;;;;;;;5.33;100.00;98710.72;5019766;28;20120;-81
2023/12/12 09:20:06;;;;;;;0.40;0.40;;;;;;;5.38;100.00;98722.44;5020245;28;20169;-81
2023/12/12 09:22:31;;;;;;;0.40;0.40;;;;;;;5.42;100.00;98722.88;5035810;28;20068;-81
2023/12/12 09:24:57;;;;;;;0.45;0.45;;;;;;;5.46;100.00;98726.81;5019637;28;20061;-81
2023/12/12 09:27:23;;;;;;;0.40;0.40;;;;;;;5.51;100.00;98727.88;5003286;28;20033;-81
2023/12/12 09:29:48;;;;;;;0.40;0.40;;;;;;;5.66;100.00;98730.47;5003071;28;20372;-81
2023/12/12 09:32:14;;;;;;;0.40;0.40;;;;;;;5.76;100.00;98739.94;5002397;28;20038;-80
2023/12/12 09:34:40;;;;;;;0.50;0.50;;;;;;;5.88;100.00;98741.88;5018745;28;20447;-81
2023/12/12 09:37:05;;;;;;;0.40;0.40;;;;;;;5.98;100.00;98744.25;5003021;28;20087;-81
2023/12/12 09:39:36;;;;;;;0.40;0.40;;;;;;;6.02;100.00;98740.16;5035738;28;20033;-81
2023/12/12 09:42:08;;;;;;;0.50;0.50;;;;;;;6.07;100.00;98751.06;5002991;28;20042;-81
2023/12/12 09:44:35;;;;;;;0.40;0.40;;;;;;;6.06;100.00;98744.09;5011538;28;20047;-79
2023/12/12 09:47:03;;;;;;;0.40;0.40;;;;;;;6.07;100.00;98745.72;5012183;28;20567;-81
2023/12/12 09:49:33;;;;;;;0.50;0.50;;;;;;;6.19;100.00;98751.31;5035353;28;20033;-82
2023/12/12 09:52:04;;;;;;;0.50;0.50;;;;;;;6.33;100.00;98749.56;5019214;28;20495;-81
2023/12/12 09:54:31;;;;;;;0.40;0.40;;;;;;;6.50;100.00;98753.53;5018990;28;20040;-81
2023/12/12 09:56:57;;;;;;;0.40;0.40;;;;;;;6.75;100.00;98761.06;5018976;28;20041;-81
2023/12/12 09:59:28;;;;;;;0.40;0.40;;;;;;;7.01;100.00;98763.81;5003201;28;20494;-81
2023/12/12 10:01:56;;;;;;;0.50;0.50;;;;;;;7.30;100.00;98764.47;5034655;28;20490;-81
2023/12/12 10:04:23;;;;;;;0.50;0.50;;;;;;;7.48;100.00;98756.66;5018573;28;20021;-81
2023/12/12 10:06:52;;;;;;;0.40;0.40;;;;;;;7.59;100.00;98765.09;5002558;28;20040;-81
2023/12/12 10:09:21;;;;;;;0.50;0.50;;;;;;;7.62;100.00;98765.53;5018615;28;20460;-81
2023/12/12 10:11:48;;;;;;;0.40;0.40;;;;;;;7.61;100.00;98766.53;5002487;28;20041;-81
2023/12/12 10:14:13;;;;;;;0.50;0.50;;;;;;;7.70;100.00;98765.34;5001663;28;20030;-82
2023/12/12 10:16:39;;;;;;;0.45;0.45;;;;;;;7.90;100.00;98769.84;5018302;28;20041;-81
2023/12/12 10:19:11;;;;;;;0.40;0.40;;;;;;;8.06;100.00;98765.91;5002431;28;20056;-81
2023/12/12 10:21:36;;;;;;;0.50;0.50;;;;;;;8.18;100.00;98769.59;5018153;28;20052;-81
2023/12/12 10:24:03;;;;;;;0.40;0.40;;;;;;;8.23;100.00;98772.47;5002102;28;20388;-80
2023/12/12 10:26:32;;;;;;;0.43;0.43;;;;;;;8.28;100.00;98767.31;5018528;28;20443;-80
2023/12/12 10:29:02;;;;;;;0.40;0.40;;;;;;;8.38;100.00;98762.31;4985874;28;20044;-80
2023/12/12 10:31:28;;;;;;;0.50;0.50;;;;;;;8.48;100.00;98763.78;5018318;28;20454;-80
2023/12/12 10:33:55;;;;;;;0.40;0.40;;;;;;;8.52;100.00;98771.19;5027105;28;20037;-80
2023/12/12 10:36:23;;;;;;;0.50;0.50;;;;;;;8.44;100.00;98770.59;5039603;28;20037;-80
2023/12/12 10:38:48;;;;;;;0.40;0.40;;;;;;;8.26;100.00;98773.91;5001890;28;20120;-80
2023/12/12 10:41:19;;;;;;;0.50;0.50;;;;;;;8.09;100.00;98771.66;5001849;28;20119;-80
2023/12/12 10:43:48;;;;;;;0.50;0.50;;;;;;;7.96;100.00;98773.53;5018350;28;20060;-80
2023/12/12 10:46:19;;;;;;;0.50;0.50;;;;;;;7.87;100.00;98775.59;5002503;28;20476;-80
2023/12/12 10:48:47;;;;;;;0.43;0.43;;;;;;;7.81;100.00;98773.78;5002182;28;20468;-80
2023/12/12 10:51:17;;;;;;;0.40;0.40;;;;;;;7.73;100.00;98777.47;5017774;28;20498;-80
2023/12/12 10:53:45;;;;;;;0.40;0.40;;;;;;;7.77;100.00;98776.00;5018877;28;20029;-80
2023/12/12 10:56:12;;;;;;;0.50;0.50;;;;;;;7.80;100.00;98778.28;5034339;28;20464;-81
2023/12/12 10:58:40;;;;;;;0.40;0.40;;;;;;;7.70;100.00;98781.38;5017970;28;20037;-80
2023/12/12 11:01:07;;;;;;;0.40;0.40;;;;;;;7.69;100.00;98785.06;5001507;28;20029;-79
2023/12/12 11:03:35;;;;;;;0.40;0.40;;;;;;;7.65;100.00;98778.50;5033823;28;20519;-79
2023/12/12 11:06:02;;;;;;;0.40;0.40;;;;;;;7.65;100.00;98785.72;5017889;28;20039;-79
2023/12/12 11:08:27;;;;;;;0.50;0.50;;;;;;;7.60;100.00;98780.97;5017602;28;20132;-79
2023/12/12 11:10:54;;;;;;;0.50;0.50;;;;;;;7.60;100.00;98782.81;5017297;28;20124;-80
2023/12/12 11:13:28;;;;;;;0.40;0.40;;;;;;;7.63;100.00;98785.09;5017642;28;20140;-79
2023/12/12 11:15:55;;;;;;;0.50;0.50;;;;;;;7.64;100.00;98781.38;4985456;28;20048;-79
2023/12/12 11:18:21;;;;;;;0.50;0.50;;;;;;;7.59;100.00;98773.94;5001092;28;20114;-79
2023/12/12 11:20:47;;;;;;;0.45;0.45;;;;;;;7.54;100.00;98772.91;5001086;28;20418;-79
2023/12/12 11:23:42;;;;;;;0.50;0.50;;;;;;;7.49;100.00;98784.25;5017389;28;20037;-79
2023/12/12 11:26:09;;;;;;;0.40;0.40;;;;;;;7.47;100.00;98775.59;5031463;28;20132;-79
2023/12/12 11:28:38;;;;;;;0.40;0.40;;;;;;;7.49;100.00;98774.38;5033617;28;20026;-79
2023/12/12 11:31:04;;;;;;;0.40;0.40;;;;;;;7.51;100.00;98776.00;5016977;28;20362;-79
2023/12/12 11:33:30;;;;;;;0.40;0.40;;;;;;;7.52;100.00;98783.03;5016857;28;20086;-79
2023/12/12 11:35:56;;;;;;;0.40;0.40;;;;;;;7.53;100.00;98784.66;5000297;28;20476;-79
2023/12/12 11:38:33;;;;;;;0.47;0.47;;;;;;;7.56;100.00;98776.22;5016826;28;20598;-79
2023/12/12 11:41:16;;;;;;;0.40;0.40;;;;;;;7.61;100.00;98784.44;5018495;28;20041;-79
2023/12/12 11:43:41;;;;;;;0.50;0.50;;;;;;;7.60;100.00;98786.31;5000473;28;20033;-79
2023/12/12 11:46:23;;;;;;;0.43;0.43;;;;;;;7.61;100.00;98787.13;5001419;28;20533;-80
2023/12/12 11:48:49;;;;;;;0.50;0.50;;;;;;;7.62;100.00;98783.41;5017297;28;20033;-80
2023/12/12 11:51:33;;;;;;;0.50;0.50;;;;;;;7.65;100.00;98786.53;4984172;28;20059;-80
2023/12/12 11:54:04;;;;;;;0.50;0.50;;;;;;;7.69;100.00;98790.41;5016554;28;20476;-79
2023/12/12 11:56:30;;;;;;;0.50;0.50;;;;;;;7.74;100.00;98797.84;5000563;28;20036;-79
2023/12/12 11:58:58;;;;;;;0.40;0.40;;;;;;;7.74;100.00;98787.13;5000497;28;20037;-79
2023/12/12 12:01:25;;;;;;;0.40;0.40;;;;;;;7.75;100.00;98791.44;5000447;28;20048;-79
2023/12/12 12:03:52;;;;;;;0.40;0.40;;;;;;;7.69;100.00;98789.59;5000603;28;20464;-79